Time;durP1;ratioP1;P1;durP2;ratioP2;P2;SDS_P1;SDS_P2;PMS_P1;PMS_P2;Temp;Humidity;BMP_temperature;BMP_pressure;BME280_temperature;BME280_humidity;BME280_pressure;Samples;Min_cycle;Max_cycle;Signal;HPM_P1;HPM_P2
2023/07/23 00:01:07;;;;;;;12.63;4.88;;;14.50;99.90;;;;;;5096071;28;20049;-84
2023/07/23 00:03:34;;;;;;;10.43;5.22;;;14.50;99.90;;;;;;5112615;28;20042;-83
2023/07/23 00:06:01;;;;;;;14.25;5.97;;;14.50;99.90;;;;;;5112568;28;20040;-83
2023/07/23 00:08:27;;;;;;;12.02;5.40;;;14.50;99.90;;;;;;5112650;28;20035;-83
2023/07/23 00:10:58;;;;;;;7.63;4.32;;;14.50;99.90;;;;;;5128808;28;20043;-83
2023/07/23 00:13:25;;;;;;;8.45;4.70;;;14.40;99.90;;;;;;5129135;28;20043;-83
2023/07/23 00:15:52;;;;;;;8.20;4.22;;;14.50;99.90;;;;;;5113073;27;20043;-83
2023/07/23 00:18:19;;;;;;;7.75;4.43;;;14.40;99.90;;;;;;5112424;28;20039;-83
2023/07/23 00:20:46;;;;;;;8.43;4.40;;;14.40;99.90;;;;;;5128677;28;20043;-83
2023/07/23 00:23:13;;;;;;;8.50;4.38;;;14.40;99.90;;;;;;5128618;28;20372;-83
2023/07/23 00:25:40;;;;;;;8.02;4.50;;;14.40;99.90;;;;;;5095394;28;20101;-83
2023/07/23 00:28:07;;;;;;;7.25;3.78;;;14.40;99.90;;;;;;5113266;27;20047;-83
2023/07/23 00:30:35;;;;;;;8.38;4.15;;;14.40;99.90;;;;;;5112669;28;20083;-83
2023/07/23 00:33:01;;;;;;;9.32;4.50;;;14.40;99.90;;;;;;5145449;28;20043;-83
2023/07/23 00:35:28;;;;;;;6.85;4.10;;;14.30;99.90;;;;;;5111743;28;20522;-83
2023/07/23 00:37:55;;;;;;;10.65;4.25;;;14.30;99.90;;;;;;5111642;28;20036;-83
2023/07/23 00:40:21;;;;;;;7.95;4.18;;;14.30;99.90;;;;;;5112813;28;20123;-82
2023/07/23 00:42:48;;;;;;;8.00;4.40;;;14.30;99.90;;;;;;5111132;28;20055;-82
2023/07/23 00:45:15;;;;;;;7.72;3.92;;;14.30;99.90;;;;;;5111461;28;20087;-83
2023/07/23 00:47:42;;;;;;;10.02;4.50;;;14.30;99.90;;;;;;5095017;28;20043;-83
2023/07/23 00:50:11;;;;;;;9.75;4.45;;;14.30;99.90;;;;;;5119917;28;20040;-82
2023/07/23 00:52:38;;;;;;;9.75;4.20;;;14.20;99.90;;;;;;5128646;28;20090;-83
2023/07/23 00:55:06;;;;;;;11.85;4.72;;;14.20;99.90;;;;;;5144831;28;20047;-83
2023/07/23 00:57:33;;;;;;;8.35;4.03;;;14.20;99.90;;;;;;5111366;28;20043;-83
2023/07/23 00:59:59;;;;;;;8.65;4.15;;;14.20;99.90;;;;;;5107294;28;20193;-83
2023/07/23 01:02:26;;;;;;;10.15;4.93;;;14.20;99.90;;;;;;5127644;28;20031;-83
2023/07/23 01:04:54;;;;;;;6.75;3.95;;;14.20;99.90;;;;;;5110696;28;20039;-83
2023/07/23 01:07:23;;;;;;;8.80;4.75;;;14.10;99.90;;;;;;5111425;28;20078;-83
2023/07/23 01:09:50;;;;;;;8.18;4.57;;;14.10;99.90;;;;;;5130585;27;20042;-82
2023/07/23 01:12:17;;;;;;;10.77;5.03;;;14.10;99.90;;;;;;5114780;27;20043;-83
2023/07/23 01:14:44;;;;;;;11.30;4.93;;;14.10;99.90;;;;;;5131650;27;20081;-83
2023/07/23 01:17:17;;;;;;;9.10;5.22;;;14.10;99.90;;;;;;5131638;27;20054;-83
2023/07/23 01:19:44;;;;;;;10.02;5.15;;;14.10;99.90;;;;;;5148114;27;20388;-83
2023/07/23 01:22:11;;;;;;;10.07;5.20;;;14.10;99.90;;;;;;5123527;28;20043;-83
2023/07/23 01:24:37;;;;;;;9.02;5.03;;;14.10;99.90;;;;;;5094473;28;20081;-83
2023/07/23 01:27:04;;;;;;;10.93;4.43;;;14.10;99.90;;;;;;5093635;28;20039;-83
2023/07/23 01:29:31;;;;;;;10.43;5.47;;;14.10;99.90;;;;;;5094381;28;20036;-83
2023/07/23 01:31:58;;;;;;;13.93;5.90;;;14.10;99.90;;;;;;5104572;28;20040;-83
2023/07/23 01:34:25;;;;;;;9.30;5.22;;;14.10;99.90;;;;;;5126988;28;20458;-83
2023/07/23 01:36:52;;;;;;;8.73;4.93;;;14.10;99.90;;;;;;5110753;28;20035;-83
2023/07/23 01:39:19;;;;;;;9.48;5.20;;;14.10;99.90;;;;;;5110260;28;20195;-83
2023/07/23 01:41:49;;;;;;;12.35;5.38;;;14.10;99.90;;;;;;5116086;27;20031;-82
2023/07/23 01:44:15;;;;;;;10.88;5.10;;;14.10;99.90;;;;;;5113583;27;20091;-83
2023/07/23 01:46:42;;;;;;;9.27;4.97;;;14.10;99.90;;;;;;5114313;27;20073;-83
2023/07/23 01:49:09;;;;;;;11.18;5.05;;;14.10;99.90;;;;;;5147585;27;20072;-83
2023/07/23 01:51:35;;;;;;;10.27;5.10;;;14.10;99.90;;;;;;5109289;28;20043;-82
2023/07/23 01:54:02;;;;;;;9.50;5.05;;;14.10;99.90;;;;;;5110460;28;20812;-82
2023/07/23 01:56:29;;;;;;;11.38;5.53;;;14.00;99.90;;;;;;5110729;28;20036;-82
2023/07/23 01:58:55;;;;;;;10.68;4.72;;;14.10;99.90;;;;;;5110452;28;20043;-82
2023/07/23 02:01:22;;;;;;;9.48;4.93;;;14.20;99.90;;;;;;5127077;28;20039;-82
2023/07/23 02:03:49;;;;;;;8.45;4.93;;;14.10;99.90;;;;;;5114153;27;20035;-84
2023/07/23 02:06:16;;;;;;;9.80;5.45;;;14.10;99.90;;;;;;5130121;27;20042;-82
2023/07/23 02:08:42;;;;;;;12.10;5.47;;;14.10;99.90;;;;;;5114181;28;20491;-82
2023/07/23 02:11:09;;;;;;;10.10;4.63;;;14.10;99.90;;;;;;5130599;28;20043;-82
2023/07/23 02:13:36;;;;;;;12.18;4.70;;;14.10;99.90;;;;;;5129416;28;20046;-82
2023/07/23 02:16:03;;;;;;;10.73;4.40;;;14.20;99.90;;;;;;5113454;28;20047;-82
2023/07/23 02:18:30;;;;;;;7.45;4.57;;;14.20;99.90;;;;;;5114262;28;20494;-82
2023/07/23 02:20:57;;;;;;;7.88;4.55;;;14.10;99.90;;;;;;5113953;28;20042;-82
2023/07/23 02:23:24;;;;;;;9.90;4.45;;;14.10;99.90;;;;;;5130137;28;20483;-82
2023/07/23 02:25:51;;;;;;;10.57;5.03;;;14.20;99.90;;;;;;5126760;28;20032;-82
2023/07/23 02:28:17;;;;;;;9.60;4.53;;;14.20;99.90;;;;;;5126490;28;20151;-83
2023/07/23 02:30:44;;;;;;;8.07;4.60;;;14.10;99.90;;;;;;5105633;28;20536;-82
2023/07/23 02:33:11;;;;;;;9.60;4.82;;;14.20;99.90;;;;;;5130140;28;20074;-82
2023/07/23 02:35:38;;;;;;;9.55;4.25;;;14.20;99.90;;;;;;5113897;28;20051;-82
2023/07/23 02:38:04;;;;;;;10.63;4.55;;;14.20;99.90;;;;;;5109537;28;20541;-82
2023/07/23 02:40:33;;;;;;;8.85;4.35;;;14.20;99.90;;;;;;5093149;28;20040;-83
2023/07/23 02:43:01;;;;;;;8.55;4.55;;;14.20;99.90;;;;;;5127411;28;20046;-82
2023/07/23 02:45:29;;;;;;;8.68;4.53;;;14.20;99.90;;;;;;5127680;28;20056;-82
2023/07/23 02:47:55;;;;;;;10.48;4.75;;;14.20;99.90;;;;;;5131735;27;20109;-82
2023/07/23 02:50:22;;;;;;;8.07;4.32;;;14.20;99.90;;;;;;5130793;28;20036;-83
2023/07/23 02:52:49;;;;;;;7.90;4.53;;;14.20;99.90;;;;;;5130673;28;20035;-83
2023/07/23 02:55:16;;;;;;;8.68;4.35;;;14.20;99.90;;;;;;5113756;28;20041;-82
2023/07/23 02:57:43;;;;;;;9.10;4.28;;;14.20;99.90;;;;;;5097008;28;20054;-83
2023/07/23 03:00:11;;;;;;;10.15;4.30;;;14.20;99.90;;;;;;5109027;28;20043;-83
2023/07/23 03:02:38;;;;;;;12.40;4.80;;;14.20;99.90;;;;;;5113861;28;20495;-83
2023/07/23 03:05:05;;;;;;;10.10;4.70;;;14.20;99.90;;;;;;5097074;28;20042;-83
2023/07/23 03:07:33;;;;;;;9.02;4.70;;;14.20;99.90;;;;;;5113211;28;20040;-83
2023/07/23 03:10:00;;;;;;;8.73;4.72;;;14.20;99.90;;;;;;5160034;27;20061;-83
2023/07/23 03:12:27;;;;;;;8.27;4.45;;;14.20;99.90;;;;;;5150465;27;20118;-83
2023/07/23 03:14:54;;;;;;;11.00;4.55;;;14.20;99.90;;;;;;5117494;27;20555;-82
2023/07/23 03:17:20;;;;;;;8.02;4.90;;;14.20;99.90;;;;;;5116745;27;20057;-83
2023/07/23 03:19:47;;;;;;;11.85;4.50;;;14.20;99.90;;;;;;5126495;28;20027;-83
2023/07/23 03:22:15;;;;;;;12.15;4.78;;;14.20;99.90;;;;;;5099277;27;20091;-83
2023/07/23 03:24:41;;;;;;;9.38;4.60;;;14.20;99.90;;;;;;5150767;27;20043;-82
2023/07/23 03:27:08;;;;;;;7.93;4.72;;;14.20;99.90;;;;;;5133922;27;20043;-83
2023/07/23 03:29:35;;;;;;;10.30;4.65;;;14.20;99.90;;;;;;5115724;27;20042;-82
2023/07/23 03:32:02;;;;;;;9.23;5.28;;;14.20;99.90;;;;;;5127241;28;20518;-83
2023/07/23 03:34:30;;;;;;;8.02;4.82;;;14.20;99.90;;;;;;5112902;28;20047;-83
2023/07/23 03:36:56;;;;;;;8.65;4.75;;;14.20;99.90;;;;;;5129491;28;20175;-83
2023/07/23 03:39:23;;;;;;;9.02;5.43;;;14.20;99.90;;;;;;5111839;28;20130;-83
2023/07/23 03:41:50;;;;;;;9.68;5.00;;;14.10;99.90;;;;;;5113197;28;20032;-83
2023/07/23 03:44:17;;;;;;;9.90;5.82;;;14.10;99.90;;;;;;5094874;28;20047;-84
2023/07/23 03:47:02;;;;;;;10.15;5.35;;;14.20;99.90;;;;;;5112002;28;20051;-83
2023/07/23 03:49:29;;;;;;;10.88;5.32;;;14.20;99.90;;;;;;5128397;28;20400;-83
2023/07/23 03:51:57;;;;;;;10.27;5.30;;;14.20;99.90;;;;;;5122430;28;20059;-82
2023/07/23 03:54:23;;;;;;;12.02;5.50;;;14.20;99.90;;;;;;5111586;28;20822;-83
2023/07/23 03:56:50;;;;;;;10.90;5.15;;;14.20;99.90;;;;;;5110069;28;20040;-83
2023/07/23 03:59:17;;;;;;;11.68;5.70;;;14.20;99.90;;;;;;5112600;28;20044;-83
2023/07/23 04:01:43;;;;;;;8.30;4.97;;;14.20;99.90;;;;;;5112178;28;20051;-83
2023/07/23 04:04:10;;;;;;;9.70;5.07;;;14.20;99.90;;;;;;5112716;28;20043;-82
2023/07/23 04:06:37;;;;;;;9.05;5.88;;;14.20;99.90;;;;;;5095891;28;20089;-83
2023/07/23 04:09:03;;;;;;;8.90;5.70;;;14.20;99.90;;;;;;5096175;28;20047;-83
2023/07/23 04:11:30;;;;;;;12.77;5.57;;;14.20;99.90;;;;;;5095906;28;20187;-83
2023/07/23 04:13:57;;;;;;;14.10;6.03;;;14.20;99.90;;;;;;5129673;28;20062;-83
2023/07/23 04:16:23;;;;;;;10.70;5.28;;;14.20;99.90;;;;;;5129001;28;20130;-83
2023/07/23 04:18:51;;;;;;;10.70;5.90;;;14.20;99.90;;;;;;5129438;28;20043;-83
2023/07/23 04:21:18;;;;;;;9.45;5.47;;;14.20;99.90;;;;;;5129943;27;20046;-83
2023/07/23 04:23:47;;;;;;;10.30;5.15;;;14.20;99.90;;;;;;5149124;27;20039;-83
2023/07/23 04:26:14;;;;;;;11.60;5.53;;;14.20;99.90;;;;;;5149314;27;20051;-83
2023/07/23 04:28:41;;;;;;;9.27;5.00;;;14.20;99.90;;;;;;5166445;27;20043;-83
2023/07/23 04:31:08;;;;;;;10.80;5.85;;;14.20;99.90;;;;;;5115994;27;20043;-83
2023/07/23 04:33:35;;;;;;;11.60;5.68;;;14.20;99.90;;;;;;5115758;28;20039;-83
2023/07/23 04:36:07;;;;;;;13.48;5.88;;;14.30;99.90;;;;;;5128785;28;20035;-83
2023/07/23 04:38:35;;;;;;;8.38;5.47;;;14.20;99.90;;;;;;5128301;28;20526;-83
2023/07/23 04:41:01;;;;;;;12.85;5.93;;;14.30;99.90;;;;;;5128781;28;20032;-83
2023/07/23 04:43:28;;;;;;;9.85;5.53;;;14.30;99.90;;;;;;5095815;28;20063;-82
2023/07/23 04:45:55;;;;;;;13.75;5.95;;;14.30;99.90;;;;;;5094999;28;20464;-83
2023/07/23 04:48:22;;;;;;;9.93;5.95;;;14.30;99.90;;;;;;5111476;28;20118;-83
2023/07/23 04:50:59;;;;;;;10.93;5.43;;;14.30;99.90;;;;;;5094630;28;20100;-83
2023/07/23 04:53:27;;;;;;;16.10;5.75;;;14.30;99.90;;;;;;5118121;27;20080;-82
2023/07/23 04:55:54;;;;;;;16.80;5.90;;;14.30;99.90;;;;;;5148774;27;20229;-83
2023/07/23 04:58:22;;;;;;;10.50;5.93;;;14.30;99.90;;;;;;5131909;27;20034;-83
2023/07/23 05:00:50;;;;;;;14.40;5.90;;;14.30;99.90;;;;;;5148563;27;20039;-82
2023/07/23 05:03:16;;;;;;;10.68;6.07;;;14.40;99.90;;;;;;5165300;27;20126;-83
2023/07/23 05:05:45;;;;;;;10.13;6.00;;;14.40;99.90;;;;;;5131179;27;20122;-83
2023/07/23 05:08:12;;;;;;;11.48;5.40;;;14.40;99.90;;;;;;5148405;27;20035;-82
2023/07/23 05:10:39;;;;;;;13.27;5.88;;;14.40;99.90;;;;;;5114759;27;20050;-83
2023/07/23 05:13:06;;;;;;;11.55;5.32;;;14.40;99.90;;;;;;5148764;27;20057;-83
2023/07/23 05:15:33;;;;;;;11.43;5.68;;;14.40;99.90;;;;;;5113942;28;20075;-83
2023/07/23 05:18:00;;;;;;;13.23;6.07;;;14.40;99.90;;;;;;5111014;28;20096;-83
2023/07/23 05:20:26;;;;;;;9.68;5.43;;;14.40;99.90;;;;;;5111128;28;20032;-83
2023/07/23 05:22:55;;;;;;;9.90;5.82;;;14.40;99.90;;;;;;5110868;28;20574;-83
2023/07/23 05:25:22;;;;;;;11.85;5.80;;;14.40;99.90;;;;;;5158344;27;20035;-83
2023/07/23 05:27:50;;;;;;;11.20;6.00;;;14.40;99.90;;;;;;5131059;27;20087;-83
2023/07/23 05:30:17;;;;;;;8.70;5.65;;;14.40;99.90;;;;;;5143541;27;20043;-83
2023/07/23 05:32:44;;;;;;;10.48;5.88;;;14.40;99.90;;;;;;5130833;27;20515;-83
2023/07/23 05:35:13;;;;;;;11.65;6.22;;;14.50;99.90;;;;;;5126301;28;20523;-83
2023/07/23 05:37:40;;;;;;;14.10;6.90;;;14.50;99.90;;;;;;5122781;27;20419;-82
2023/07/23 05:40:07;;;;;;;10.65;5.97;;;14.50;99.90;;;;;;5131037;27;20046;-83
2023/07/23 05:42:34;;;;;;;11.02;6.47;;;14.50;99.90;;;;;;5114272;27;20066;-83
2023/07/23 05:45:00;;;;;;;12.23;6.28;;;14.50;99.90;;;;;;5128533;27;20047;-83
2023/07/23 05:47:27;;;;;;;11.52;6.22;;;14.50;99.90;;;;;;5114205;27;20475;-84
2023/07/23 05:49:54;;;;;;;11.38;6.20;;;14.60;99.90;;;;;;5113606;27;20035;-83
2023/07/23 05:52:20;;;;;;;12.88;7.05;;;14.50;99.90;;;;;;5130682;27;20126;-84
2023/07/23 05:54:47;;;;;;;11.02;6.90;;;14.60;99.90;;;;;;5130519;28;20047;-83
2023/07/23 05:57:14;;;;;;;11.70;6.47;;;14.60;99.90;;;;;;5105455;28;20122;-84
2023/07/23 05:59:40;;;;;;;9.80;6.20;;;14.60;99.90;;;;;;5127210;28;20035;-84
2023/07/23 06:02:08;;;;;;;13.40;6.88;;;14.70;99.90;;;;;;5129941;28;20043;-84
2023/07/23 06:04:36;;;;;;;10.75;6.10;;;14.60;99.90;;;;;;5145418;28;20044;-83
2023/07/23 06:07:03;;;;;;;11.95;6.32;;;14.60;99.90;;;;;;5119203;28;20035;-83
2023/07/23 06:09:29;;;;;;;9.45;6.15;;;14.70;99.90;;;;;;5093866;28;20046;-83
2023/07/23 06:11:56;;;;;;;9.13;6.18;;;14.70;99.90;;;;;;5093284;28;20523;-83
2023/07/23 06:14:23;;;;;;;11.55;6.07;;;14.80;99.90;;;;;;5110529;28;20487;-83
2023/07/23 06:16:50;;;;;;;11.82;6.38;;;14.70;99.90;;;;;;5112987;28;20040;-83
2023/07/23 06:19:16;;;;;;;14.77;6.63;;;14.80;99.90;;;;;;5110337;28;20043;-83
2023/07/23 06:21:43;;;;;;;11.75;6.80;;;14.80;99.90;;;;;;5130033;28;20047;-83
2023/07/23 06:24:10;;;;;;;10.73;6.30;;;14.80;99.90;;;;;;5114104;28;20038;-83
2023/07/23 06:26:37;;;;;;;11.45;6.28;;;14.80;99.90;;;;;;5114524;28;20042;-84
2023/07/23 06:29:05;;;;;;;18.25;7.00;;;14.90;99.90;;;;;;5114409;28;20050;-84
2023/07/23 06:31:32;;;;;;;12.68;6.78;;;14.90;99.90;;;;;;5114751;28;20411;-84
2023/07/23 06:33:58;;;;;;;11.73;6.85;;;14.90;99.90;;;;;;5113595;28;20043;-84
2023/07/23 06:36:25;;;;;;;15.55;7.25;;;15.00;99.90;;;;;;5131232;28;20488;-83
2023/07/23 06:38:52;;;;;;;12.25;6.57;;;15.00;99.90;;;;;;5113903;28;20550;-84
2023/07/23 06:41:18;;;;;;;15.15;6.93;;;15.10;99.90;;;;;;5114189;28;20040;-83
2023/07/23 06:43:45;;;;;;;12.07;6.97;;;15.10;99.90;;;;;;5116858;27;20035;-84
2023/07/23 06:46:17;;;;;;;12.70;6.85;;;15.10;99.90;;;;;;5126435;28;20062;-83
2023/07/23 06:48:43;;;;;;;14.10;6.75;;;15.20;99.90;;;;;;5098603;28;20039;-83
2023/07/23 06:51:10;;;;;;;10.85;6.60;;;15.20;99.90;;;;;;5113414;28;20061;-83
2023/07/23 06:53:37;;;;;;;11.15;6.47;;;15.30;99.90;;;;;;5097208;28;20131;-83
2023/07/23 06:56:08;;;;;;;11.50;6.88;;;15.30;99.90;;;;;;5117274;27;20500;-83
2023/07/23 06:58:37;;;;;;;13.40;6.80;;;15.30;99.90;;;;;;5143562;27;20039;-84
2023/07/23 07:01:06;;;;;;;11.43;6.47;;;15.30;99.90;;;;;;5141071;27;20507;-82
2023/07/23 07:03:32;;;;;;;11.98;6.53;;;15.30;99.90;;;;;;5122609;27;20089;-82
2023/07/23 07:06:00;;;;;;;10.15;6.38;;;15.40;99.90;;;;;;5140654;27;20426;-84
2023/07/23 07:08:28;;;;;;;10.43;6.20;;;15.40;99.90;;;;;;5139007;28;20027;-83
2023/07/23 07:11:02;;;;;;;11.00;6.70;;;15.40;99.90;;;;;;5130239;28;20065;-83
2023/07/23 07:13:30;;;;;;;11.80;6.78;;;15.40;99.90;;;;;;5113651;28;20126;-83
2023/07/23 07:15:58;;;;;;;11.13;6.55;;;15.40;99.90;;;;;;5129905;28;20055;-84
2023/07/23 07:18:25;;;;;;;11.43;6.82;;;15.50;99.90;;;;;;5147192;28;20461;-83
2023/07/23 07:21:00;;;;;;;11.93;6.90;;;15.40;99.90;;;;;;5113205;28;20042;-83
2023/07/23 07:23:28;;;;;;;9.77;6.67;;;15.50;99.90;;;;;;5142278;27;20077;-82
2023/07/23 07:25:55;;;;;;;13.73;7.15;;;15.50;99.90;;;;;;5142299;28;20042;-83
2023/07/23 07:28:24;;;;;;;17.17;7.05;;;15.50;99.90;;;;;;5113426;28;20097;-83
2023/07/23 07:30:55;;;;;;;12.65;6.90;;;15.50;99.90;;;;;;5113182;28;20086;-83
2023/07/23 07:33:22;;;;;;;9.43;6.40;;;15.50;99.90;;;;;;5113732;28;20403;-83
2023/07/23 07:35:49;;;;;;;11.25;6.70;;;15.50;99.90;;;;;;5097160;28;20035;-84
2023/07/23 07:38:16;;;;;;;12.95;7.10;;;15.50;99.90;;;;;;5112690;28;20126;-83
2023/07/23 07:40:43;;;;;;;12.43;7.10;;;15.50;99.90;;;;;;5096481;28;20138;-83
2023/07/23 07:43:09;;;;;;;13.75;6.85;;;15.50;99.90;;;;;;5112711;28;20122;-83
2023/07/23 07:45:36;;;;;;;15.95;6.95;;;15.50;99.90;;;;;;5096253;27;20381;-82
2023/07/23 07:48:03;;;;;;;12.65;7.25;;;15.50;99.90;;;;;;5104448;28;20047;-83
2023/07/23 07:50:30;;;;;;;10.30;6.22;;;15.50;99.90;;;;;;5132895;27;20043;-84
2023/07/23 07:52:57;;;;;;;11.98;6.38;;;15.50;99.90;;;;;;5149762;27;20095;-84
2023/07/23 07:55:23;;;;;;;12.20;7.38;;;15.60;99.90;;;;;;5107390;28;20045;-82
2023/07/23 07:57:50;;;;;;;13.43;6.57;;;15.60;99.90;;;;;;5135100;28;20035;-83
2023/07/23 08:00:17;;;;;;;11.30;6.68;;;15.70;99.90;;;;;;5113400;27;20047;-83
2023/07/23 08:02:45;;;;;;;12.20;7.00;;;15.70;99.90;;;;;;5131981;27;20079;-83
2023/07/23 08:05:12;;;;;;;12.43;7.00;;;15.70;99.90;;;;;;5131572;27;20491;-83
2023/07/23 08:07:39;;;;;;;12.43;6.82;;;15.70;99.90;;;;;;5107790;28;20476;-82
2023/07/23 08:10:08;;;;;;;15.20;6.93;;;15.70;99.90;;;;;;5110826;28;20032;-83
2023/07/23 08:12:35;;;;;;;12.50;6.38;;;15.70;99.90;;;;;;5111058;28;20039;-82
2023/07/23 08:15:03;;;;;;;13.77;7.10;;;15.70;99.90;;;;;;5111071;28;20050;-83
2023/07/23 08:17:30;;;;;;;14.27;6.80;;;15.70;99.90;;;;;;5112940;27;20086;-82
2023/07/23 08:19:57;;;;;;;14.80;7.03;;;15.70;99.90;;;;;;5111386;28;20047;-82
2023/07/23 08:22:24;;;;;;;16.08;7.20;;;15.70;99.90;;;;;;5094111;28;20043;-84
2023/07/23 08:24:51;;;;;;;14.15;7.10;;;15.70;99.90;;;;;;5145135;28;20098;-84
2023/07/23 08:27:21;;;;;;;12.48;6.82;;;15.80;99.90;;;;;;5110857;28;20499;-84
2023/07/23 08:29:48;;;;;;;11.93;6.75;;;15.80;99.90;;;;;;5129419;28;20047;-83
2023/07/23 08:32:16;;;;;;;13.23;6.90;;;15.80;99.90;;;;;;5111022;28;20070;-83
2023/07/23 08:34:44;;;;;;;11.45;6.47;;;15.70;99.90;;;;;;5095024;28;20044;-84
2023/07/23 08:37:11;;;;;;;12.65;6.45;;;15.70;99.90;;;;;;5111091;28;20164;-85
2023/07/23 08:39:38;;;;;;;14.90;6.47;;;15.70;99.90;;;;;;5121965;28;20137;-85
2023/07/23 08:42:40;;;;;;;11.45;6.13;;;15.70;99.90;;;;;;5111162;28;20044;-84
2023/07/23 08:45:25;;;;;;;13.00;6.97;;;15.70;99.90;;;;;;5127658;28;20044;-83
2023/07/23 08:48:12;;;;;;;13.32;6.65;;;15.80;99.90;;;;;;5127615;28;20108;-83
2023/07/23 08:50:40;;;;;;;12.30;6.30;;;15.80;99.90;;;;;;5144032;27;20062;-84
2023/07/23 08:53:10;;;;;;;11.68;6.25;;;15.80;99.90;;;;;;5110933;28;20074;-84
2023/07/23 08:55:39;;;;;;;11.70;6.10;;;15.80;99.90;;;;;;5128195;28;20079;-84
2023/07/23 08:58:06;;;;;;;12.07;6.15;;;15.80;99.90;;;;;;5110242;28;20046;-84
2023/07/23 09:00:34;;;;;;;11.75;6.05;;;15.80;99.90;;;;;;5122418;28;20159;-83
2023/07/23 09:03:04;;;;;;;11.10;5.93;;;15.80;99.90;;;;;;5131270;27;20043;-84
2023/07/23 09:05:31;;;;;;;9.82;6.15;;;15.80;99.90;;;;;;5148180;27;20038;-84
2023/07/23 09:07:59;;;;;;;11.73;5.75;;;15.80;99.90;;;;;;5114151;27;20039;-85
2023/07/23 09:10:26;;;;;;;10.02;5.68;;;15.90;99.90;;;;;;5120585;28;20651;-83
2023/07/23 09:12:52;;;;;;;10.98;5.95;;;15.90;99.90;;;;;;5109996;28;20119;-84
2023/07/23 09:15:19;;;;;;;8.82;5.10;;;15.90;99.90;;;;;;5093835;28;20039;-84
2023/07/23 09:17:50;;;;;;;11.23;5.47;;;15.80;99.90;;;;;;5127346;28;20039;-83
2023/07/23 09:20:20;;;;;;;8.38;4.90;;;15.80;99.90;;;;;;5130572;27;20027;-83
2023/07/23 09:22:46;;;;;;;11.70;5.20;;;15.80;99.90;;;;;;5147941;27;20039;-84
2023/07/23 09:25:15;;;;;;;9.35;4.93;;;15.80;99.90;;;;;;5130248;27;20039;-85
2023/07/23 09:27:42;;;;;;;9.82;5.20;;;15.70;99.90;;;;;;5147536;27;20053;-84
2023/07/23 09:30:19;;;;;;;9.05;5.00;;;15.70;99.90;;;;;;5126970;27;20483;-85
2023/07/23 09:32:57;;;;;;;10.00;5.45;;;15.70;99.90;;;;;;5130532;27;20070;-84
2023/07/23 09:35:24;;;;;;;7.38;4.95;;;15.80;99.90;;;;;;5129729;27;20403;-83
2023/07/23 09:37:59;;;;;;;9.75;5.38;;;15.80;99.90;;;;;;5131021;27;20045;-84
2023/07/23 09:40:36;;;;;;;7.70;4.40;;;15.80;99.90;;;;;;5131191;28;20039;-84
2023/07/23 09:43:03;;;;;;;8.38;4.80;;;15.80;99.90;;;;;;5131680;27;20027;-84
2023/07/23 09:45:31;;;;;;;8.50;4.78;;;15.80;99.90;;;;;;5130036;27;20059;-85
2023/07/23 09:47:58;;;;;;;9.35;5.07;;;15.80;99.90;;;;;;5147115;27;20532;-83
2023/07/23 09:50:26;;;;;;;7.85;4.88;;;15.70;99.90;;;;;;5129940;27;20456;-85
2023/07/23 09:52:52;;;;;;;9.50;4.85;;;15.80;99.90;;;;;;5146221;27;20510;-83
2023/07/23 09:55:23;;;;;;;8.68;4.57;;;15.80;99.90;;;;;;5128458;27;20035;-83
2023/07/23 09:57:51;;;;;;;7.82;4.55;;;15.90;99.90;;;;;;5129811;27;20121;-83
2023/07/23 10:00:19;;;;;;;7.05;4.22;;;15.80;99.90;;;;;;5146328;27;20043;-84
2023/07/23 10:02:50;;;;;;;8.63;5.10;;;15.90;99.90;;;;;;5122902;28;20118;-84
2023/07/23 10:05:18;;;;;;;8.45;4.47;;;15.90;99.90;;;;;;5154341;27;20034;-84
2023/07/23 10:07:48;;;;;;;8.52;4.50;;;15.90;99.90;;;;;;5129924;27;20134;-83
2023/07/23 10:10:16;;;;;;;8.30;4.68;;;16.00;99.90;;;;;;5163035;27;20126;-83
2023/07/23 10:12:42;;;;;;;8.13;4.38;;;16.10;99.90;;;;;;5128176;28;20031;-83
2023/07/23 10:15:09;;;;;;;6.25;4.18;;;16.10;99.90;;;;;;5163762;27;20092;-83
2023/07/23 10:17:44;;;;;;;9.57;4.72;;;16.20;99.90;;;;;;5146151;28;20503;-83
2023/07/23 10:20:14;;;;;;;6.50;4.03;;;16.20;99.90;;;;;;5146620;28;20467;-83
2023/07/23 10:22:45;;;;;;;6.75;4.20;;;16.30;99.90;;;;;;5146679;28;20058;-84
2023/07/23 10:25:25;;;;;;;9.13;4.22;;;16.10;99.90;;;;;;5143445;28;20104;-83
2023/07/23 10:28:00;;;;;;;7.60;4.22;;;16.10;99.90;;;;;;5129969;28;20073;-83
2023/07/23 10:30:29;;;;;;;6.35;3.78;;;16.10;99.90;;;;;;5129530;28;20031;-84
2023/07/23 10:33:11;;;;;;;6.20;3.83;;;16.00;99.90;;;;;;5112537;28;20034;-84
2023/07/23 10:35:52;;;;;;;6.90;3.90;;;16.00;99.90;;;;;;5125918;28;20043;-84
2023/07/23 10:38:24;;;;;;;8.38;4.35;;;16.00;99.90;;;;;;5125899;28;20043;-83
2023/07/23 10:40:51;;;;;;;7.13;4.07;;;16.00;99.90;;;;;;5125548;28;20086;-83
2023/07/23 10:43:18;;;;;;;8.25;4.30;;;16.00;99.90;;;;;;5125721;28;20036;-84
2023/07/23 10:46:09;;;;;;;9.10;4.55;;;16.00;99.90;;;;;;5104679;28;20058;-83
2023/07/23 10:48:48;;;;;;;6.85;4.50;;;16.00;99.90;;;;;;5145738;28;20133;-84
2023/07/23 10:51:17;;;;;;;7.95;4.20;;;16.10;99.90;;;;;;5147050;28;20046;-84
2023/07/23 10:54:02;;;;;;;8.73;4.40;;;16.00;99.90;;;;;;5146195;28;20134;-83
2023/07/23 10:56:38;;;;;;;7.13;4.50;;;16.10;99.90;;;;;;5126128;28;20112;-84
2023/07/23 10:59:07;;;;;;;12.30;4.25;;;16.10;99.90;;;;;;5143324;28;20047;-83
2023/07/23 11:01:36;;;;;;;8.75;4.50;;;16.00;99.90;;;;;;5142600;28;20044;-82
2023/07/23 11:04:24;;;;;;;8.63;4.07;;;16.00;99.90;;;;;;5125572;28;20067;-83
2023/07/23 11:06:55;;;;;;;7.43;4.50;;;16.10;99.90;;;;;;5147903;27;20403;-84
2023/07/23 11:09:30;;;;;;;8.68;4.47;;;16.10;99.90;;;;;;5150717;27;20480;-84
2023/07/23 11:11:57;;;;;;;7.45;4.10;;;16.10;99.90;;;;;;5151643;27;20039;-85
2023/07/23 11:14:28;;;;;;;8.38;4.13;;;16.10;99.90;;;;;;5150933;27;20070;-84
2023/07/23 11:16:59;;;;;;;5.68;3.50;;;16.10;99.90;;;;;;5149294;27;20407;-84
2023/07/23 11:19:27;;;;;;;7.53;4.35;;;16.10;99.90;;;;;;5133615;27;20411;-84
2023/07/23 11:22:02;;;;;;;7.18;4.05;;;16.10;99.90;;;;;;5151062;27;20511;-85
2023/07/23 11:24:30;;;;;;;6.63;3.88;;;16.10;99.90;;;;;;5150699;27;20047;-84
2023/07/23 11:26:59;;;;;;;7.63;4.72;;;16.20;99.90;;;;;;5166318;27;20490;-84
2023/07/23 11:29:27;;;;;;;7.75;4.65;;;16.20;99.90;;;;;;5150406;27;20878;-84
2023/07/23 11:31:54;;;;;;;10.95;4.28;;;16.30;99.90;;;;;;5134000;27;20085;-84
2023/07/23 11:34:23;;;;;;;6.93;4.60;;;16.30;99.90;;;;;;5117083;27;20107;-83
2023/07/23 11:36:53;;;;;;;8.27;4.50;;;16.30;99.90;;;;;;5130095;27;20036;-83
2023/07/23 11:39:23;;;;;;;7.88;4.45;;;16.30;99.90;;;;;;5125093;27;20495;-84
2023/07/23 11:41:51;;;;;;;7.97;4.45;;;16.40;99.90;;;;;;5133637;27;20062;-82
2023/07/23 11:44:18;;;;;;;7.07;4.30;;;16.40;99.90;;;;;;5116454;27;20138;-82
2023/07/23 11:46:47;;;;;;;7.32;4.75;;;16.40;99.90;;;;;;5128507;28;20477;-82
2023/07/23 11:49:14;;;;;;;7.45;4.50;;;16.40;99.90;;;;;;5097262;28;20032;-82
2023/07/23 11:51:41;;;;;;;8.18;4.60;;;16.40;99.90;;;;;;5113101;28;20047;-82
2023/07/23 11:54:10;;;;;;;6.85;4.35;;;16.40;99.90;;;;;;5114611;27;20039;-82
2023/07/23 11:56:40;;;;;;;9.65;4.72;;;16.40;99.90;;;;;;5135562;27;20039;-82
2023/07/23 11:59:09;;;;;;;8.18;4.72;;;16.40;99.90;;;;;;5143770;27;20061;-82
2023/07/23 12:01:37;;;;;;;10.07;4.40;;;16.40;99.90;;;;;;5128762;28;20028;-83
2023/07/23 12:04:05;;;;;;;9.80;4.97;;;16.50;99.90;;;;;;5112611;28;20595;-82
2023/07/23 12:06:34;;;;;;;9.40;4.78;;;16.50;99.90;;;;;;5121080;27;20400;-83
2023/07/23 12:09:05;;;;;;;8.30;5.18;;;16.50;99.90;;;;;;5139368;27;20031;-82
2023/07/23 12:11:34;;;;;;;10.63;5.45;;;16.50;99.90;;;;;;5137313;27;20396;-83
2023/07/23 12:14:08;;;;;;;12.02;4.55;;;16.60;99.90;;;;;;5129852;28;20035;-82
2023/07/23 12:16:42;;;;;;;8.68;5.07;;;16.60;99.90;;;;;;5112936;28;20054;-82
2023/07/23 12:19:12;;;;;;;10.07;5.18;;;16.60;99.90;;;;;;5142658;27;20049;-83
2023/07/23 12:21:40;;;;;;;10.07;5.63;;;16.70;99.90;;;;;;5149063;27;20511;-83
2023/07/23 12:24:29;;;;;;;9.88;5.65;;;16.70;99.90;;;;;;5147769;27;20031;-82
2023/07/23 12:26:58;;;;;;;10.93;5.13;;;16.70;99.90;;;;;;5146386;27;20039;-82
2023/07/23 12:29:27;;;;;;;10.13;4.85;;;16.60;99.90;;;;;;5140845;27;20738;-82
2023/07/23 12:32:11;;;;;;;9.18;5.43;;;16.70;99.90;;;;;;5149004;27;20418;-82
2023/07/23 12:34:40;;;;;;;9.73;5.38;;;16.60;99.90;;;;;;5131396;27;20505;-85
2023/07/23 12:37:08;;;;;;;9.30;5.97;;;16.70;99.90;;;;;;5166513;27;20043;-82
2023/07/23 12:39:35;;;;;;;8.57;5.07;;;16.60;99.90;;;;;;5132680;27;20134;-83
2023/07/23 12:42:01;;;;;;;7.15;4.45;;;16.70;99.90;;;;;;5131892;27;20567;-82
2023/07/23 12:44:29;;;;;;;7.43;4.50;;;16.80;99.90;;;;;;5131921;27;20051;-83
2023/07/23 12:46:56;;;;;;;7.28;4.30;;;16.80;99.90;;;;;;5107704;28;20039;-85